sensor_id;sensor_type;location;lat;lon;timestamp;P1;durP1;ratioP1;P2;durP2;ratioP2
9496;SDS011;4786;51.270;4.456;2024-03-17T00:01:45;10.83;;;8.00;;
9496;SDS011;4786;51.270;4.456;2024-03-17T00:04:11;8.93;;;8.00;;
9496;SDS011;4786;51.270;4.456;2024-03-17T00:06:36;8.73;;;7.83;;
9496;SDS011;4786;51.270;4.456;2024-03-17T00:09:02;9.73;;;7.60;;
9496;SDS011;4786;51.270;4.456;2024-03-17T00:11:31;9.80;;;7.67;;
9496;SDS011;4786;51.270;4.456;2024-03-17T00:14:03;9.93;;;8.20;;
9496;SDS011;4786;51.270;4.456;2024-03-17T00:16:30;9.07;;;7.37;;
9496;SDS011;4786;51.270;4.456;2024-03-17T00:18:56;9.53;;;7.13;;
9496;SDS011;4786;51.270;4.456;2024-03-17T00:21:21;8.83;;;7.03;;
9496;SDS011;4786;51.270;4.456;2024-03-17T00:23:48;9.20;;;7.20;;
9496;SDS011;4786;51.270;4.456;2024-03-17T00:26:14;9.23;;;7.30;;
9496;SDS011;4786;51.270;4.456;2024-03-17T00:28:40;8.10;;;6.50;;
9496;SDS011;4786;51.270;4.456;2024-03-17T00:31:07;7.60;;;6.50;;
9496;SDS011;4786;51.270;4.456;2024-03-17T00:33:35;10.10;;;7.00;;
9496;SDS011;4786;51.270;4.456;2024-03-17T00:36:01;8.63;;;6.30;;
9496;SDS011;4786;51.270;4.456;2024-03-17T00:38:26;8.13;;;6.67;;
9496;SDS011;4786;51.270;4.456;2024-03-17T00:40:52;9.17;;;6.87;;
9496;SDS011;4786;51.270;4.456;2024-03-17T00:43:18;7.57;;;6.70;;
9496;SDS011;4786;51.270;4.456;2024-03-17T00:45:44;7.53;;;6.80;;
9496;SDS011;4786;51.270;4.456;2024-03-17T00:48:16;9.33;;;6.70;;
9496;SDS011;4786;51.270;4.456;2024-03-17T00:50:41;9.13;;;6.37;;
9496;SDS011;4786;51.270;4.456;2024-03-17T00:53:09;10.20;;;7.23;;
9496;SDS011;4786;51.270;4.456;2024-03-17T00:55:35;9.13;;;6.70;;
9496;SDS011;4786;51.270;4.456;2024-03-17T00:58:01;7.73;;;7.03;;
9496;SDS011;4786;51.270;4.456;2024-03-17T01:00:28;8.63;;;6.77;;
9496;SDS011;4786;51.270;4.456;2024-03-17T01:02:54;7.73;;;6.30;;
9496;SDS011;4786;51.270;4.456;2024-03-17T01:05:21;8.47;;;6.17;;
9496;SDS011;4786;51.270;4.456;2024-03-17T01:07:46;7.10;;;6.40;;
9496;SDS011;4786;51.270;4.456;2024-03-17T01:10:13;8.43;;;6.27;;
9496;SDS011;4786;51.270;4.456;2024-03-17T01:12:39;8.83;;;6.53;;
9496;SDS011;4786;51.270;4.456;2024-03-17T01:15:05;6.50;;;5.90;;
9496;SDS011;4786;51.270;4.456;2024-03-17T01:17:32;8.50;;;5.70;;
9496;SDS011;4786;51.270;4.456;2024-03-17T01:19:57;6.57;;;5.57;;
9496;SDS011;4786;51.270;4.456;2024-03-17T01:22:23;6.60;;;5.70;;
9496;SDS011;4786;51.270;4.456;2024-03-17T01:24:49;8.77;;;6.23;;
9496;SDS011;4786;51.270;4.456;2024-03-17T01:27:14;10.03;;;6.10;;
9496;SDS011;4786;51.270;4.456;2024-03-17T01:29:41;7.00;;;5.90;;
9496;SDS011;4786;51.270;4.456;2024-03-17T01:32:08;6.60;;;5.70;;
9496;SDS011;4786;51.270;4.456;2024-03-17T01:34:35;8.70;;;5.40;;
9496;SDS011;4786;51.270;4.456;2024-03-17T01:37:02;6.20;;;5.60;;
9496;SDS011;4786;51.270;4.456;2024-03-17T01:39:27;6.03;;;5.43;;
9496;SDS011;4786;51.270;4.456;2024-03-17T01:41:53;7.93;;;5.20;;
9496;SDS011;4786;51.270;4.456;2024-03-17T01:44:22;6.67;;;5.37;;
9496;SDS011;4786;51.270;4.456;2024-03-17T01:46:50;6.50;;;5.30;;
9496;SDS011;4786;51.270;4.456;2024-03-17T01:49:16;6.70;;;5.70;;
9496;SDS011;4786;51.270;4.456;2024-03-17T01:51:43;6.87;;;5.50;;
9496;SDS011;4786;51.270;4.456;2024-03-17T01:54:10;7.27;;;5.53;;
9496;SDS011;4786;51.270;4.456;2024-03-17T01:56:38;5.63;;;4.80;;
9496;SDS011;4786;51.270;4.456;2024-03-17T01:59:04;5.97;;;5.17;;
9496;SDS011;4786;51.270;4.456;2024-03-17T02:01:31;6.73;;;4.97;;
9496;SDS011;4786;51.270;4.456;2024-03-17T02:03:57;6.73;;;5.27;;
9496;SDS011;4786;51.270;4.456;2024-03-17T02:06:23;6.60;;;5.43;;
9496;SDS011;4786;51.270;4.456;2024-03-17T02:08:52;6.50;;;5.27;;
9496;SDS011;4786;51.270;4.456;2024-03-17T02:13:54;7.70;;;5.30;;
9496;SDS011;4786;51.270;4.456;2024-03-17T02:16:20;5.90;;;5.27;;
9496;SDS011;4786;51.270;4.456;2024-03-17T02:18:46;6.57;;;4.73;;
9496;SDS011;4786;51.270;4.456;2024-03-17T02:21:13;5.27;;;4.77;;
9496;SDS011;4786;51.270;4.456;2024-03-17T02:23:40;7.07;;;5.37;;
9496;SDS011;4786;51.270;4.456;2024-03-17T02:26:06;6.87;;;5.27;;
9496;SDS011;4786;51.270;4.456;2024-03-17T02:28:41;5.60;;;5.10;;
9496;SDS011;4786;51.270;4.456;2024-03-17T02:31:08;6.37;;;5.73;;
9496;SDS011;4786;51.270;4.456;2024-03-17T02:33:35;5.87;;;5.27;;
9496;SDS011;4786;51.270;4.456;2024-03-17T02:36:02;6.83;;;5.93;;
9496;SDS011;4786;51.270;4.456;2024-03-17T02:38:35;5.97;;;5.33;;
9496;SDS011;4786;51.270;4.456;2024-03-17T02:41:20;7.10;;;5.40;;
9496;SDS011;4786;51.270;4.456;2024-03-17T02:43:46;6.23;;;5.63;;
9496;SDS011;4786;51.270;4.456;2024-03-17T02:46:12;7.87;;;5.43;;
9496;SDS011;4786;51.270;4.456;2024-03-17T02:48:39;7.13;;;5.57;;
9496;SDS011;4786;51.270;4.456;2024-03-17T02:51:14;5.87;;;5.37;;
9496;SDS011;4786;51.270;4.456;2024-03-17T02:53:41;6.93;;;6.17;;
9496;SDS011;4786;51.270;4.456;2024-03-17T02:56:08;7.20;;;5.97;;
9496;SDS011;4786;51.270;4.456;2024-03-17T02:58:35;6.73;;;5.97;;
9496;SDS011;4786;51.270;4.456;2024-03-17T03:01:01;7.13;;;6.37;;
9496;SDS011;4786;51.270;4.456;2024-03-17T03:03:27;9.07;;;6.40;;
9496;SDS011;4786;51.270;4.456;2024-03-17T03:05:53;6.20;;;5.60;;
9496;SDS011;4786;51.270;4.456;2024-03-17T03:08:21;6.67;;;5.47;;
9496;SDS011;4786;51.270;4.456;2024-03-17T03:10:48;7.20;;;5.90;;
9496;SDS011;4786;51.270;4.456;2024-03-17T03:13:14;7.00;;;6.30;;
9496;SDS011;4786;51.270;4.456;2024-03-17T03:15:39;6.20;;;5.60;;
9496;SDS011;4786;51.270;4.456;2024-03-17T03:18:05;8.47;;;5.77;;
9496;SDS011;4786;51.270;4.456;2024-03-17T03:20:31;7.17;;;6.47;;
9496;SDS011;4786;51.270;4.456;2024-03-17T03:22:56;7.07;;;6.37;;
9496;SDS011;4786;51.270;4.456;2024-03-17T03:25:22;8.03;;;5.97;;
9496;SDS011;4786;51.270;4.456;2024-03-17T03:27:48;7.10;;;6.40;;
9496;SDS011;4786;51.270;4.456;2024-03-17T03:30:15;8.57;;;7.13;;
9496;SDS011;4786;51.270;4.456;2024-03-17T03:32:41;9.33;;;6.83;;
9496;SDS011;4786;51.270;4.456;2024-03-17T03:35:07;8.50;;;7.13;;
9496;SDS011;4786;51.270;4.456;2024-03-17T03:37:34;7.90;;;7.10;;
9496;SDS011;4786;51.270;4.456;2024-03-17T03:39:59;7.90;;;6.57;;
9496;SDS011;4786;51.270;4.456;2024-03-17T03:42:25;7.53;;;6.67;;
9496;SDS011;4786;51.270;4.456;2024-03-17T03:44:51;9.37;;;7.73;;
9496;SDS011;4786;51.270;4.456;2024-03-17T03:47:17;7.70;;;7.00;;
9496;SDS011;4786;51.270;4.456;2024-03-17T03:49:42;7.87;;;7.07;;
9496;SDS011;4786;51.270;4.456;2024-03-17T03:52:10;9.53;;;7.60;;
9496;SDS011;4786;51.270;4.456;2024-03-17T03:54:35;8.30;;;7.27;;
9496;SDS011;4786;51.270;4.456;2024-03-17T03:57:02;10.47;;;7.50;;
9496;SDS011;4786;51.270;4.456;2024-03-17T03:59:28;9.50;;;8.30;;
9496;SDS011;4786;51.270;4.456;2024-03-17T04:01:54;8.10;;;7.30;;
9496;SDS011;4786;51.270;4.456;2024-03-17T04:04:19;9.70;;;8.07;;
9496;SDS011;4786;51.270;4.456;2024-03-17T04:06:45;9.37;;;7.80;;
9496;SDS011;4786;51.270;4.456;2024-03-17T04:09:12;10.50;;;7.97;;
9496;SDS011;4786;51.270;4.456;2024-03-17T04:11:37;8.80;;;7.90;;
9496;SDS011;4786;51.270;4.456;2024-03-17T04:14:03;8.50;;;7.70;;
9496;SDS011;4786;51.270;4.456;2024-03-17T04:16:29;8.57;;;7.67;;
9496;SDS011;4786;51.270;4.456;2024-03-17T04:18:56;9.03;;;8.10;;
9496;SDS011;4786;51.270;4.456;2024-03-17T04:21:22;9.17;;;8.17;;
9496;SDS011;4786;51.270;4.456;2024-03-17T04:23:48;13.23;;;8.07;;
9496;SDS011;4786;51.270;4.456;2024-03-17T04:26:14;9.00;;;8.03;;
9496;SDS011;4786;51.270;4.456;2024-03-17T04:28:39;9.83;;;8.37;;
9496;SDS011;4786;51.270;4.456;2024-03-17T04:31:05;10.87;;;8.03;;
9496;SDS011;4786;51.270;4.456;2024-03-17T04:33:34;8.20;;;7.40;;
9496;SDS011;4786;51.270;4.456;2024-03-17T04:36:01;8.87;;;7.43;;
9496;SDS011;4786;51.270;4.456;2024-03-17T04:38:30;11.30;;;7.70;;
9496;SDS011;4786;51.270;4.456;2024-03-17T04:40:55;8.13;;;7.33;;
9496;SDS011;4786;51.270;4.456;2024-03-17T04:43:29;9.13;;;7.57;;
9496;SDS011;4786;51.270;4.456;2024-03-17T04:46:03;9.33;;;8.00;;
9496;SDS011;4786;51.270;4.456;2024-03-17T04:48:31;8.47;;;7.67;;
9496;SDS011;4786;51.270;4.456;2024-03-17T04:50:57;9.67;;;8.20;;
9496;SDS011;4786;51.270;4.456;2024-03-17T04:53:24;9.23;;;8.33;;
9496;SDS011;4786;51.270;4.456;2024-03-17T04:56:00;8.80;;;7.83;;
9496;SDS011;4786;51.270;4.456;2024-03-17T04:58:30;7.73;;;6.93;;
9496;SDS011;4786;51.270;4.456;2024-03-17T05:00:57;9.50;;;7.80;;
9496;SDS011;4786;51.270;4.456;2024-03-17T05:03:28;9.00;;;7.50;;
9496;SDS011;4786;51.270;4.456;2024-03-17T05:06:00;9.30;;;7.80;;
9496;SDS011;4786;51.270;4.456;2024-03-17T05:08:27;8.77;;;7.87;;
9496;SDS011;4786;51.270;4.456;2024-03-17T05:11:00;9.13;;;7.90;;
9496;SDS011;4786;51.270;4.456;2024-03-17T05:13:33;10.07;;;8.50;;
9496;SDS011;4786;51.270;4.456;2024-03-17T05:16:00;9.60;;;8.00;;
9496;SDS011;4786;51.270;4.456;2024-03-17T05:18:27;10.13;;;7.93;;
9496;SDS011;4786;51.270;4.456;2024-03-17T05:20:56;8.40;;;7.60;;
9496;SDS011;4786;51.270;4.456;2024-03-17T05:23:26;11.23;;;7.83;;
9496;SDS011;4786;51.270;4.456;2024-03-17T05:25:56;8.37;;;7.57;;
9496;SDS011;4786;51.270;4.456;2024-03-17T05:28:23;8.40;;;7.60;;
9496;SDS011;4786;51.270;4.456;2024-03-17T05:30:49;8.77;;;7.87;;
9496;SDS011;4786;51.270;4.456;2024-03-17T05:33:18;8.33;;;7.43;;
9496;SDS011;4786;51.270;4.456;2024-03-17T05:35:53;8.70;;;7.80;;
9496;SDS011;4786;51.270;4.456;2024-03-17T05:38:22;9.50;;;7.90;;
9496;SDS011;4786;51.270;4.456;2024-03-17T05:40:58;8.97;;;8.07;;
9496;SDS011;4786;51.270;4.456;2024-03-17T05:43:26;8.90;;;7.60;;
9496;SDS011;4786;51.270;4.456;2024-03-17T05:45:58;9.13;;;7.83;;
9496;SDS011;4786;51.270;4.456;2024-03-17T05:48:28;9.33;;;8.33;;
9496;SDS011;4786;51.270;4.456;2024-03-17T05:50:55;9.53;;;8.20;;
9496;SDS011;4786;51.270;4.456;2024-03-17T05:53:21;8.70;;;7.80;;
9496;SDS011;4786;51.270;4.456;2024-03-17T05:55:51;9.87;;;8.87;;
9496;SDS011;4786;51.270;4.456;2024-03-17T05:58:16;9.07;;;7.77;;
9496;SDS011;4786;51.270;4.456;2024-03-17T06:00:42;8.90;;;7.60;;
9496;SDS011;4786;51.270;4.456;2024-03-17T06:03:09;11.47;;;8.03;;
9496;SDS011;4786;51.270;4.456;2024-03-17T06:05:38;9.37;;;8.37;;
9496;SDS011;4786;51.270;4.456;2024-03-17T06:08:07;10.27;;;8.57;;
9496;SDS011;4786;51.270;4.456;2024-03-17T06:10:34;9.73;;;8.37;;
9496;SDS011;4786;51.270;4.456;2024-03-17T06:13:02;9.33;;;8.30;;
9496;SDS011;4786;51.270;4.456;2024-03-17T06:15:28;10.43;;;8.17;;
9496;SDS011;4786;51.270;4.456;2024-03-17T06:17:54;10.13;;;8.23;;
9496;SDS011;4786;51.270;4.456;2024-03-17T06:20:20;8.63;;;7.73;;
9496;SDS011;4786;51.270;4.456;2024-03-17T06:22:53;9.00;;;8.10;;
9496;SDS011;4786;51.270;4.456;2024-03-17T06:25:20;11.80;;;8.30;;
9496;SDS011;4786;51.270;4.456;2024-03-17T06:27:54;10.87;;;8.37;;
9496;SDS011;4786;51.270;4.456;2024-03-17T06:30:22;11.00;;;7.83;;
9496;SDS011;4786;51.270;4.456;2024-03-17T06:32:47;8.83;;;8.00;;
9496;SDS011;4786;51.270;4.456;2024-03-17T06:35:14;10.43;;;8.47;;
9496;SDS011;4786;51.270;4.456;2024-03-17T06:37:50;10.00;;;8.20;;
9496;SDS011;4786;51.270;4.456;2024-03-17T06:40:17;9.27;;;8.00;;
9496;SDS011;4786;51.270;4.456;2024-03-17T06:42:43;9.33;;;7.30;;
9496;SDS011;4786;51.270;4.456;2024-03-17T06:45:09;8.43;;;7.47;;
9496;SDS011;4786;51.270;4.456;2024-03-17T06:47:35;9.53;;;7.30;;
9496;SDS011;4786;51.270;4.456;2024-03-17T06:50:04;9.37;;;7.40;;
9496;SDS011;4786;51.270;4.456;2024-03-17T06:52:31;10.50;;;8.17;;
9496;SDS011;4786;51.270;4.456;2024-03-17T06:54:57;8.33;;;7.40;;
9496;SDS011;4786;51.270;4.456;2024-03-17T06:57:26;8.60;;;7.47;;
9496;SDS011;4786;51.270;4.456;2024-03-17T06:59:52;8.63;;;7.47;;
9496;SDS011;4786;51.270;4.456;2024-03-17T07:02:17;10.07;;;7.53;;
9496;SDS011;4786;51.270;4.456;2024-03-17T07:04:44;8.63;;;7.33;;
9496;SDS011;4786;51.270;4.456;2024-03-17T07:07:11;8.40;;;7.30;;
9496;SDS011;4786;51.270;4.456;2024-03-17T07:09:38;8.20;;;7.40;;
9496;SDS011;4786;51.270;4.456;2024-03-17T07:12:07;7.47;;;6.33;;
9496;SDS011;4786;51.270;4.456;2024-03-17T07:14:34;8.73;;;7.10;;
9496;SDS011;4786;51.270;4.456;2024-03-17T07:17:00;9.20;;;7.10;;
9496;SDS011;4786;51.270;4.456;2024-03-17T07:19:26;11.10;;;7.10;;
9496;SDS011;4786;51.270;4.456;2024-03-17T07:21:51;7.47;;;6.63;;
9496;SDS011;4786;51.270;4.456;2024-03-17T07:24:17;8.37;;;7.47;;
9496;SDS011;4786;51.270;4.456;2024-03-17T07:26:43;11.33;;;7.23;;
9496;SDS011;4786;51.270;4.456;2024-03-17T07:29:08;8.00;;;6.60;;
9496;SDS011;4786;51.270;4.456;2024-03-17T07:31:34;8.70;;;6.47;;
9496;SDS011;4786;51.270;4.456;2024-03-17T07:34:00;11.30;;;7.27;;
9496;SDS011;4786;51.270;4.456;2024-03-17T07:36:26;8.43;;;7.30;;
9496;SDS011;4786;51.270;4.456;2024-03-17T07:38:51;7.47;;;6.73;;
9496;SDS011;4786;51.270;4.456;2024-03-17T07:41:17;10.30;;;7.03;;
9496;SDS011;4786;51.270;4.456;2024-03-17T07:43:45;8.47;;;6.97;;
9496;SDS011;4786;51.270;4.456;2024-03-17T07:46:11;9.17;;;6.93;;
9496;SDS011;4786;51.270;4.456;2024-03-17T07:48:38;8.00;;;6.60;;
9496;SDS011;4786;51.270;4.456;2024-03-17T07:51:06;9.27;;;6.90;;
9496;SDS011;4786;51.270;4.456;2024-03-17T07:53:34;7.83;;;6.97;;
9496;SDS011;4786;51.270;4.456;2024-03-17T07:56:01;7.90;;;7.10;;
9496;SDS011;4786;51.270;4.456;2024-03-17T07:58:31;7.63;;;6.67;;
9496;SDS011;4786;51.270;4.456;2024-03-17T08:01:02;10.13;;;7.27;;
9496;SDS011;4786;51.270;4.456;2024-03-17T08:03:30;8.23;;;7.20;;
9496;SDS011;4786;51.270;4.456;2024-03-17T08:06:00;8.43;;;7.07;;
9496;SDS011;4786;51.270;4.456;2024-03-17T08:08:27;8.03;;;6.90;;
9496;SDS011;4786;51.270;4.456;2024-03-17T08:10:53;8.03;;;7.20;;
9496;SDS011;4786;51.270;4.456;2024-03-17T08:13:19;7.83;;;6.33;;
9496;SDS011;4786;51.270;4.456;2024-03-17T08:15:46;8.13;;;6.40;;
9496;SDS011;4786;51.270;4.456;2024-03-17T08:18:21;9.77;;;7.00;;
9496;SDS011;4786;51.270;4.456;2024-03-17T08:20:47;8.83;;;6.63;;
9496;SDS011;4786;51.270;4.456;2024-03-17T08:23:13;9.23;;;6.57;;
9496;SDS011;4786;51.270;4.456;2024-03-17T08:25:38;7.13;;;6.20;;
9496;SDS011;4786;51.270;4.456;2024-03-17T08:28:05;7.83;;;6.50;;
9496;SDS011;4786;51.270;4.456;2024-03-17T08:30:32;8.27;;;6.63;;
9496;SDS011;4786;51.270;4.456;2024-03-17T08:32:57;7.03;;;6.33;;
9496;SDS011;4786;51.270;4.456;2024-03-17T08:35:24;7.87;;;6.23;;
9496;SDS011;4786;51.270;4.456;2024-03-17T08:37:50;7.60;;;6.80;;
9496;SDS011;4786;51.270;4.456;2024-03-17T08:40:21;6.57;;;5.77;;
9496;SDS011;4786;51.270;4.456;2024-03-17T08:42:47;7.00;;;6.30;;
9496;SDS011;4786;51.270;4.456;2024-03-17T08:45:14;8.13;;;6.50;;
9496;SDS011;4786;51.270;4.456;2024-03-17T08:47:39;8.47;;;6.40;;
9496;SDS011;4786;51.270;4.456;2024-03-17T08:50:05;6.63;;;5.83;;
9496;SDS011;4786;51.270;4.456;2024-03-17T08:52:33;11.87;;;6.50;;
9496;SDS011;4786;51.270;4.456;2024-03-17T08:54:59;7.93;;;5.73;;
9496;SDS011;4786;51.270;4.456;2024-03-17T08:57:28;7.77;;;5.83;;
9496;SDS011;4786;51.270;4.456;2024-03-17T08:59:53;8.33;;;5.80;;
9496;SDS011;4786;51.270;4.456;2024-03-17T09:02:19;7.77;;;5.53;;
9496;SDS011;4786;51.270;4.456;2024-03-17T09:04:46;10.63;;;6.23;;
9496;SDS011;4786;51.270;4.456;2024-03-17T09:07:12;9.77;;;5.80;;
9496;SDS011;4786;51.270;4.456;2024-03-17T09:09:40;7.07;;;5.47;;
9496;SDS011;4786;51.270;4.456;2024-03-17T09:12:07;7.73;;;5.80;;
9496;SDS011;4786;51.270;4.456;2024-03-17T09:14:33;9.77;;;5.27;;
9496;SDS011;4786;51.270;4.456;2024-03-17T09:16:59;6.53;;;5.33;;
9496;SDS011;4786;51.270;4.456;2024-03-17T09:19:24;7.93;;;5.70;;
9496;SDS011;4786;51.270;4.456;2024-03-17T09:21:50;6.97;;;5.63;;
9496;SDS011;4786;51.270;4.456;2024-03-17T09:24:15;8.97;;;5.70;;
9496;SDS011;4786;51.270;4.456;2024-03-17T09:26:41;6.93;;;4.93;;
9496;SDS011;4786;51.270;4.456;2024-03-17T09:29:07;6.77;;;5.60;;
9496;SDS011;4786;51.270;4.456;2024-03-17T09:31:32;7.90;;;5.53;;
9496;SDS011;4786;51.270;4.456;2024-03-17T09:34:00;7.73;;;5.30;;
9496;SDS011;4786;51.270;4.456;2024-03-17T09:36:27;7.03;;;5.20;;
9496;SDS011;4786;51.270;4.456;2024-03-17T09:38:52;6.60;;;5.03;;
9496;SDS011;4786;51.270;4.456;2024-03-17T09:41:22;7.90;;;5.57;;
9496;SDS011;4786;51.270;4.456;2024-03-17T09:43:53;6.80;;;5.27;;
9496;SDS011;4786;51.270;4.456;2024-03-17T09:46:20;8.17;;;5.03;;
9496;SDS011;4786;51.270;4.456;2024-03-17T09:48:47;6.07;;;4.77;;
9496;SDS011;4786;51.270;4.456;2024-03-17T09:51:20;8.87;;;5.23;;
9496;SDS011;4786;51.270;4.456;2024-03-17T09:53:47;8.07;;;4.73;;
9496;SDS011;4786;51.270;4.456;2024-03-17T09:56:13;5.77;;;4.77;;
9496;SDS011;4786;51.270;4.456;2024-03-17T09:58:41;6.10;;;4.30;;
9496;SDS011;4786;51.270;4.456;2024-03-17T10:01:07;7.30;;;4.60;;
9496;SDS011;4786;51.270;4.456;2024-03-17T10:03:40;11.30;;;5.10;;
9496;SDS011;4786;51.270;4.456;2024-03-17T10:06:17;8.83;;;4.50;;
9496;SDS011;4786;51.270;4.456;2024-03-17T10:08:50;7.67;;;4.03;;
9496;SDS011;4786;51.270;4.456;2024-03-17T10:11:17;10.57;;;5.03;;
9496;SDS011;4786;51.270;4.456;2024-03-17T10:13:44;7.70;;;4.43;;
9496;SDS011;4786;51.270;4.456;2024-03-17T10:16:30;7.37;;;4.70;;
9496;SDS011;4786;51.270;4.456;2024-03-17T10:21:47;7.00;;;4.13;;
9496;SDS011;4786;51.270;4.456;2024-03-17T10:24:20;4.93;;;3.87;;
9496;SDS011;4786;51.270;4.456;2024-03-17T10:26:51;7.57;;;3.90;;
9496;SDS011;4786;51.270;4.456;2024-03-17T10:29:31;9.20;;;4.43;;
9496;SDS011;4786;51.270;4.456;2024-03-17T10:32:04;7.73;;;5.50;;
9496;SDS011;4786;51.270;4.456;2024-03-17T10:34:41;8.13;;;3.83;;
9496;SDS011;4786;51.270;4.456;2024-03-17T10:37:09;8.03;;;3.67;;
9496;SDS011;4786;51.270;4.456;2024-03-17T10:39:45;4.27;;;3.10;;
9496;SDS011;4786;51.270;4.456;2024-03-17T10:42:14;12.20;;;3.80;;
9496;SDS011;4786;51.270;4.456;2024-03-17T10:44:53;6.27;;;3.50;;
9496;SDS011;4786;51.270;4.456;2024-03-17T10:47:21;6.03;;;3.10;;
9496;SDS011;4786;51.270;4.456;2024-03-17T10:49:51;5.17;;;3.07;;
9496;SDS011;4786;51.270;4.456;2024-03-17T10:52:19;9.13;;;3.33;;
9496;SDS011;4786;51.270;4.456;2024-03-17T10:54:48;7.67;;;3.53;;
9496;SDS011;4786;51.270;4.456;2024-03-17T10:59:47;7.07;;;3.53;;
9496;SDS011;4786;51.270;4.456;2024-03-17T11:04:39;7.33;;;3.47;;
9496;SDS011;4786;51.270;4.456;2024-03-17T11:07:05;11.23;;;3.47;;
9496;SDS011;4786;51.270;4.456;2024-03-17T11:09:32;7.30;;;3.70;;
9496;SDS011;4786;51.270;4.456;2024-03-17T11:11:57;9.13;;;3.30;;
9496;SDS011;4786;51.270;4.456;2024-03-17T11:14:25;5.90;;;3.17;;
9496;SDS011;4786;51.270;4.456;2024-03-17T11:16:51;6.30;;;3.20;;
9496;SDS011;4786;51.270;4.456;2024-03-17T11:19:16;5.87;;;3.50;;
9496;SDS011;4786;51.270;4.456;2024-03-17T11:21:42;6.33;;;3.33;;
9496;SDS011;4786;51.270;4.456;2024-03-17T11:24:18;9.33;;;3.50;;
9496;SDS011;4786;51.270;4.456;2024-03-17T11:26:45;7.23;;;3.70;;
9496;SDS011;4786;51.270;4.456;2024-03-17T11:29:29;6.00;;;3.10;;
9496;SDS011;4786;51.270;4.456;2024-03-17T11:31:57;7.33;;;3.57;;
9496;SDS011;4786;51.270;4.456;2024-03-17T11:36:59;8.33;;;3.77;;
9496;SDS011;4786;51.270;4.456;2024-03-17T11:42:16;6.90;;;3.53;;
9496;SDS011;4786;51.270;4.456;2024-03-17T11:44:42;5.50;;;3.30;;
9496;SDS011;4786;51.270;4.456;2024-03-17T11:47:10;6.23;;;3.17;;
9496;SDS011;4786;51.270;4.456;2024-03-17T11:54:39;6.60;;;3.50;;
9496;SDS011;4786;51.270;4.456;2024-03-17T11:57:23;6.10;;;3.30;;
9496;SDS011;4786;51.270;4.456;2024-03-17T11:59:50;3.93;;;3.00;;
9496;SDS011;4786;51.270;4.456;2024-03-17T12:04:43;5.00;;;3.20;;
9496;SDS011;4786;51.270;4.456;2024-03-17T12:07:13;6.70;;;3.53;;
9496;SDS011;4786;51.270;4.456;2024-03-17T12:09:43;6.13;;;3.40;;
9496;SDS011;4786;51.270;4.456;2024-03-17T12:12:20;4.73;;;3.10;;
9496;SDS011;4786;51.270;4.456;2024-03-17T12:14:48;4.80;;;3.07;;
9496;SDS011;4786;51.270;4.456;2024-03-17T12:17:15;5.37;;;3.00;;
9496;SDS011;4786;51.270;4.456;2024-03-17T12:19:48;6.63;;;3.00;;
9496;SDS011;4786;51.270;4.456;2024-03-17T12:22:16;5.90;;;3.20;;
9496;SDS011;4786;51.270;4.456;2024-03-17T12:24:50;5.83;;;3.20;;
9496;SDS011;4786;51.270;4.456;2024-03-17T12:27:17;5.43;;;2.90;;
9496;SDS011;4786;51.270;4.456;2024-03-17T12:29:45;7.87;;;3.20;;
9496;SDS011;4786;51.270;4.456;2024-03-17T12:32:14;8.00;;;3.13;;
9496;SDS011;4786;51.270;4.456;2024-03-17T12:34:41;5.80;;;3.00;;
9496;SDS011;4786;51.270;4.456;2024-03-17T12:37:08;4.83;;;2.60;;
9496;SDS011;4786;51.270;4.456;2024-03-17T12:39:40;5.83;;;3.10;;
9496;SDS011;4786;51.270;4.456;2024-03-17T12:42:13;4.73;;;2.80;;
9496;SDS011;4786;51.270;4.456;2024-03-17T12:44:50;4.63;;;3.17;;
9496;SDS011;4786;51.270;4.456;2024-03-17T12:47:17;5.90;;;3.80;;
9496;SDS011;4786;51.270;4.456;2024-03-17T12:49:45;5.60;;;3.07;;
9496;SDS011;4786;51.270;4.456;2024-03-17T12:52:22;4.03;;;2.67;;
9496;SDS011;4786;51.270;4.456;2024-03-17T12:54:58;4.50;;;2.70;;
9496;SDS011;4786;51.270;4.456;2024-03-17T12:57:45;9.37;;;3.10;;
9496;SDS011;4786;51.270;4.456;2024-03-17T13:00:31;5.93;;;3.17;;
9496;SDS011;4786;51.270;4.456;2024-03-17T13:03:07;6.57;;;3.07;;
9496;SDS011;4786;51.270;4.456;2024-03-17T13:05:33;3.07;;;2.37;;
9496;SDS011;4786;51.270;4.456;2024-03-17T13:07:59;4.77;;;2.87;;
9496;SDS011;4786;51.270;4.456;2024-03-17T13:10:26;6.20;;;2.67;;
9496;SDS011;4786;51.270;4.456;2024-03-17T13:13:00;5.07;;;2.70;;
9496;SDS011;4786;51.270;4.456;2024-03-17T13:15:30;6.10;;;2.80;;
9496;SDS011;4786;51.270;4.456;2024-03-17T13:17:59;6.17;;;3.00;;
9496;SDS011;4786;51.270;4.456;2024-03-17T13:20:25;4.40;;;2.70;;
9496;SDS011;4786;51.270;4.456;2024-03-17T13:22:52;5.60;;;3.07;;
9496;SDS011;4786;51.270;4.456;2024-03-17T13:25:18;4.27;;;2.57;;
9496;SDS011;4786;51.270;4.456;2024-03-17T13:28:01;6.23;;;2.80;;
9496;SDS011;4786;51.270;4.456;2024-03-17T13:30:28;4.30;;;2.43;;
9496;SDS011;4786;51.270;4.456;2024-03-17T13:32:55;6.23;;;2.63;;
9496;SDS011;4786;51.270;4.456;2024-03-17T13:35:28;3.83;;;2.40;;
9496;SDS011;4786;51.270;4.456;2024-03-17T13:37:54;6.27;;;2.70;;
9496;SDS011;4786;51.270;4.456;2024-03-17T13:40:21;4.83;;;2.70;;
9496;SDS011;4786;51.270;4.456;2024-03-17T13:42:48;4.53;;;2.30;;
9496;SDS011;4786;51.270;4.456;2024-03-17T13:45:16;4.80;;;2.13;;
9496;SDS011;4786;51.270;4.456;2024-03-17T13:47:45;4.87;;;2.83;;
9496;SDS011;4786;51.270;4.456;2024-03-17T13:50:13;3.83;;;2.40;;
9496;SDS011;4786;51.270;4.456;2024-03-17T13:52:39;4.57;;;2.60;;
9496;SDS011;4786;51.270;4.456;2024-03-17T13:55:06;4.33;;;2.33;;
9496;SDS011;4786;51.270;4.456;2024-03-17T13:57:38;3.93;;;2.00;;
9496;SDS011;4786;51.270;4.456;2024-03-17T14:00:04;4.83;;;2.50;;
9496;SDS011;4786;51.270;4.456;2024-03-17T14:02:32;3.07;;;2.10;;
9496;SDS011;4786;51.270;4.456;2024-03-17T14:04:58;5.13;;;2.40;;
9496;SDS011;4786;51.270;4.456;2024-03-17T14:07:24;5.63;;;2.20;;
9496;SDS011;4786;51.270;4.456;2024-03-17T14:09:50;4.33;;;2.33;;
9496;SDS011;4786;51.270;4.456;2024-03-17T14:12:16;6.03;;;2.43;;
9496;SDS011;4786;51.270;4.456;2024-03-17T14:14:41;4.17;;;2.10;;
9496;SDS011;4786;51.270;4.456;2024-03-17T14:17:08;3.20;;;2.37;;
9496;SDS011;4786;51.270;4.456;2024-03-17T14:19:34;3.90;;;2.40;;
9496;SDS011;4786;51.270;4.456;2024-03-17T14:22:00;5.23;;;2.60;;
9496;SDS011;4786;51.270;4.456;2024-03-17T14:24:26;5.10;;;2.33;;
9496;SDS011;4786;51.270;4.456;2024-03-17T14:26:53;4.00;;;2.50;;
9496;SDS011;4786;51.270;4.456;2024-03-17T14:29:19;5.80;;;2.73;;
9496;SDS011;4786;51.270;4.456;2024-03-17T14:31:44;5.23;;;2.20;;
9496;SDS011;4786;51.270;4.456;2024-03-17T14:34:10;4.47;;;2.63;;
9496;SDS011;4786;51.270;4.456;2024-03-17T14:36:36;4.77;;;2.63;;
9496;SDS011;4786;51.270;4.456;2024-03-17T14:39:02;6.00;;;2.80;;
9496;SDS011;4786;51.270;4.456;2024-03-17T14:41:28;5.30;;;2.67;;
9496;SDS011;4786;51.270;4.456;2024-03-17T14:43:55;6.07;;;2.60;;
9496;SDS011;4786;51.270;4.456;2024-03-17T14:46:22;4.47;;;2.57;;
9496;SDS011;4786;51.270;4.456;2024-03-17T14:48:48;4.13;;;2.53;;
9496;SDS011;4786;51.270;4.456;2024-03-17T14:51:15;4.90;;;2.40;;
9496;SDS011;4786;51.270;4.456;2024-03-17T14:53:46;6.20;;;2.40;;
9496;SDS011;4786;51.270;4.456;2024-03-17T14:56:17;6.37;;;2.70;;
9496;SDS011;4786;51.270;4.456;2024-03-17T14:58:44;4.63;;;2.27;;
9496;SDS011;4786;51.270;4.456;2024-03-17T15:01:11;6.33;;;2.70;;
9496;SDS011;4786;51.270;4.456;2024-03-17T15:03:37;3.80;;;2.30;;
9496;SDS011;4786;51.270;4.456;2024-03-17T15:06:08;4.77;;;2.80;;
9496;SDS011;4786;51.270;4.456;2024-03-17T15:08:43;3.20;;;2.30;;
9496;SDS011;4786;51.270;4.456;2024-03-17T15:11:09;4.13;;;2.57;;
9496;SDS011;4786;51.270;4.456;2024-03-17T15:13:35;4.10;;;2.57;;
9496;SDS011;4786;51.270;4.456;2024-03-17T15:16:04;8.43;;;2.70;;
9496;SDS011;4786;51.270;4.456;2024-03-17T15:18:33;5.17;;;2.60;;
9496;SDS011;4786;51.270;4.456;2024-03-17T15:21:00;5.03;;;2.70;;
9496;SDS011;4786;51.270;4.456;2024-03-17T15:23:26;4.03;;;2.70;;
9496;SDS011;4786;51.270;4.456;2024-03-17T15:26:03;3.87;;;2.63;;
9496;SDS011;4786;51.270;4.456;2024-03-17T15:28:41;3.60;;;2.27;;
9496;SDS011;4786;51.270;4.456;2024-03-17T15:31:07;5.30;;;2.63;;
9496;SDS011;4786;51.270;4.456;2024-03-17T15:33:34;5.97;;;2.60;;
9496;SDS011;4786;51.270;4.456;2024-03-17T15:36:01;6.07;;;2.60;;
9496;SDS011;4786;51.270;4.456;2024-03-17T15:38:29;4.23;;;2.63;;
9496;SDS011;4786;51.270;4.456;2024-03-17T15:41:02;5.83;;;2.67;;
9496;SDS011;4786;51.270;4.456;2024-03-17T15:43:32;6.03;;;2.67;;